Nasudden, Sweden

11:23 AM CEST on September 23, 2014 (GMT +0200)
Visby | Change Station
CLOSE
Current Station
Airport
Location: Visby Flygplats,
Elevation: 154 ft
Nearby Weather Stations

Elev 154 ft 57.66 °N, 18.35 °E | Updated 33 minutes ago

Scattered Clouds
Scattered Clouds
48 °F
Feels Like 48 °F
N
21
Wind Variable Wind from North

Today
High -- | Low -- °F
--% Chance of Precip.
Yesterday
High -- | Low -- °F
Precip. -- in
6:33 AM 6:44 PM
Waning Crescent, 1% visible
Pressure 29.89 in
Visibility 6.2 miles
Clouds Scattered Clouds 3700 ft
Dew Point 34 °F
Humidity 58%
Rainfall 0.00 in
Snow Depth Not available.
UV 3 out of 12
Pollen Not available.
Air Quality Not available.
Flu Activity Not available.
METAR ESSV 230850Z 36018KT 9999 SCT037 09/01 Q1012

More Conditions Fewer Conditions

Pressure 29.89 in
Visibility 6.2 miles
Clouds Scattered Clouds 3700 ft
Dew Point 34 °F
Humidity 58%
Rainfall 0.00 in
Snow Depth Not available.
UV 3 out of 12
Pollen Not available.
Air Quality Not available.
Flu Activity Not available.
METAR ESSV 230850Z 36018KT 9999 SCT037 09/01 Q1012

More Conditions Fewer Conditions

10-Day Weather Forecast

Almanac

Astronomy

Sep. 23, 2014 Rise Set
Actual Time 6:33 AM CEST 6:44 PM CEST
Civil Twilight 5:55 AM CEST 7:22 PM CEST
Nautical Twilight 5:09 AM CEST 8:07 PM CEST
Astronomical Twilight 4:21 AM CEST 8:56 PM CEST
Moon 5:36 AM CEST 6:13 PM CEST
Length of Visible Light 13h 26m
Length of Day
12h 10m
Tomorrow will be 4m 48s shorter.
Waning Crescent, 1% of the Moon is Illuminated
Today
Waning Crescent
Sep 24
New
Oct 1
First Quarter
Oct 8
Full
Oct 15
Last Quarter

Yesterday's Extremes

Country Highs Country Lows

Community

WunderPhotos

Upload Photos

1,755,643 photos uploaded!

Nearby

Snow Depth

Not available.

Earthquake Activity

City Distance Mag. Time & Date
No recent earthquake activity has been reported nearby.
Minimum magnitude displayed is 2.5.

Coastal Water Temperatures

Place Temperature
No Stations Reporting

Nearby Weather Stations